Hanover, Canada
Current Conditions -  °F | °C
As of 6:00 AM on Saturday 22 Nov 2014 (Local Time) from CYVV Reporting Station
Overcast Overcast  
Wind Chill: 13°   Ceiling: 3600
Heat Index: 27°   Visibility: 15mi
Dew Point: 19°   Wind: 18mph
Humidity: 74%   Direction: 200°SSW
Pressure: 30.05"   Gusts: NA
Location:  44.15°N, 81.03°W
Report Text: CYVV 221100Z 20016KT 15SM OVC036 M03/M07 A3005 RMK SC8 SLP188
Loading
Personal Weather Stations






























Interactive Weather Map New forecast layout! Learn more

10-Day Weather Forecast

Advertisements
Track Severe Weather on mobile